Time;durP1;ratioP1;P1;durP2;ratioP2;P2;SDS_P1;SDS_P2;PMS_P1;PMS_P2;Temp;Humidity;BMP_temperature;BMP_pressure;BME280_temperature;BME280_humidity;BME280_pressure;Samples;Min_cycle;Max_cycle;Signal;HPM_P1;HPM_P2
2021/03/11 00:02:14;;;;;;;22.67;10.73;;;;;;;13.51;66.05;100773.56;5010147;28;20046;-65
2021/03/11 00:04:42;;;;;;;17.95;7.07;;;;;;;13.38;66.38;100771.75;5008582;28;20398;-65
2021/03/11 00:07:09;;;;;;;20.27;7.47;;;;;;;13.43;66.22;100764.69;5010239;28;20042;-65
2021/03/11 00:09:36;;;;;;;15.55;6.95;;;;;;;13.47;65.86;100765.56;5009564;28;20124;-65
2021/03/11 00:12:04;;;;;;;17.23;6.40;;;;;;;13.50;65.91;100766.47;5009778;28;20038;-65
2021/03/11 00:14:32;;;;;;;17.75;6.93;;;;;;;13.46;65.81;100767.31;5009645;28;20407;-64
2021/03/11 00:17:00;;;;;;;14.52;6.10;;;;;;;13.46;65.76;100758.47;5009457;28;20395;-65
2021/03/11 00:19:27;;;;;;;18.35;5.88;;;;;;;13.43;65.82;100737.28;5010087;28;20069;-65
2021/03/11 00:21:55;;;;;;;16.65;5.80;;;;;;;13.40;65.56;100734.59;5009053;28;20053;-65
2021/03/11 00:24:23;;;;;;;18.17;6.05;;;;;;;13.24;65.94;100746.94;4992364;28;20045;-65
2021/03/11 00:26:50;;;;;;;18.48;6.07;;;;;;;13.09;66.28;100726.50;5009151;28;20034;-65
2021/03/11 00:29:17;;;;;;;22.00;7.70;;;;;;;13.06;66.28;100726.47;5010000;28;20042;-65
2021/03/11 00:31:44;;;;;;;14.75;6.50;;;;;;;13.09;66.31;100726.50;5009322;28;20034;-65
2021/03/11 00:34:13;;;;;;;23.85;11.55;;;;;;;13.20;65.97;100723.91;5009365;28;20442;-64
2021/03/11 00:36:40;;;;;;;21.40;9.20;;;;;;;13.14;66.03;100718.59;4996853;28;20120;-65
2021/03/11 00:39:08;;;;;;;18.92;8.55;;;;;;;12.95;66.41;100727.28;5008657;28;20506;-65
2021/03/11 00:41:35;;;;;;;21.75;7.93;;;;;;;12.88;66.72;100714.91;5009304;28;20046;-64
2021/03/11 00:44:03;;;;;;;23.02;7.35;;;;;;;12.77;66.59;100710.44;5009992;28;20048;-64
2021/03/11 00:46:30;;;;;;;18.20;7.25;;;;;;;12.83;66.50;100719.28;5009216;28;20145;-65
2021/03/11 00:48:57;;;;;;;19.33;7.95;;;;;;;12.96;66.11;100721.13;5009300;28;20030;-65
2021/03/11 00:51:25;;;;;;;19.90;6.15;;;;;;;12.94;65.98;100721.09;4992485;28;20052;-65
2021/03/11 00:53:52;;;;;;;15.65;6.35;;;;;;;12.98;65.85;100711.44;5008723;28;20048;-66
2021/03/11 00:56:19;;;;;;;12.45;5.28;;;;;;;13.02;65.74;100713.19;5008935;28;20046;-65
2021/03/11 00:58:46;;;;;;;14.43;5.22;;;;;;;12.98;65.56;100701.72;5008720;28;20129;-65
2021/03/11 01:01:13;;;;;;;16.02;6.25;;;;;;;12.89;65.74;100704.31;5009210;28;20108;-65
2021/03/11 01:03:41;;;;;;;25.00;12.20;;;;;;;12.84;65.95;100703.41;5009668;28;20046;-65
2021/03/11 01:06:09;;;;;;;24.48;9.52;;;;;;;12.90;65.74;100699.91;5013325;28;20487;-65
2021/03/11 01:08:38;;;;;;;15.10;4.93;;;;;;;12.93;65.71;100702.59;5012875;28;20030;-65
2021/03/11 01:11:05;;;;;;;16.10;5.53;;;;;;;12.92;65.53;100701.69;5013234;28;20034;-65
2021/03/11 01:13:33;;;;;;;14.07;4.53;;;;;;;12.93;65.49;100697.28;5012499;28;20042;-65
2021/03/11 01:16:00;;;;;;;19.13;7.18;;;;;;;12.94;65.40;100706.97;5012168;28;20042;-65
2021/03/11 01:18:27;;;;;;;12.60;4.75;;;;;;;12.97;65.27;100696.41;5013005;28;20125;-65
2021/03/11 01:20:54;;;;;;;11.85;5.07;;;;;;;13.00;65.16;100693.75;5012495;28;20103;-65
2021/03/11 01:23:21;;;;;;;13.15;5.57;;;;;;;12.99;65.15;100698.19;5012579;28;20066;-65
2021/03/11 01:25:49;;;;;;;18.55;5.90;;;;;;;13.05;64.84;100697.34;5011757;28;20034;-65
2021/03/11 01:28:17;;;;;;;15.15;5.85;;;;;;;13.01;65.02;100688.47;5012263;28;20034;-65
2021/03/11 01:30:44;;;;;;;19.45;5.68;;;;;;;12.99;64.87;100687.59;5012680;28;20129;-65
2021/03/11 01:33:11;;;;;;;17.88;5.60;;;;;;;13.00;64.88;100680.50;5012540;28;20117;-65
2021/03/11 01:35:38;;;;;;;17.20;5.47;;;;;;;12.98;64.93;100666.38;5011772;28;20038;-65
2021/03/11 01:38:06;;;;;;;13.90;6.53;;;;;;;12.99;64.87;100662.88;5011634;28;20565;-65
2021/03/11 01:40:33;;;;;;;18.52;6.10;;;;;;;13.01;64.74;100669.91;5012677;28;20073;-65
2021/03/11 01:43:02;;;;;;;17.58;5.50;;;;;;;13.00;64.66;100678.75;5011849;28;20042;-65
2021/03/11 01:45:29;;;;;;;12.02;5.63;;;;;;;12.88;64.88;100683.09;5012512;28;20121;-65
2021/03/11 01:47:56;;;;;;;17.88;6.75;;;;;;;12.74;65.15;100685.69;5012095;28;20038;-64
2021/03/11 01:50:23;;;;;;;20.25;7.05;;;;;;;12.76;65.36;100695.41;5012815;28;20046;-65
2021/03/11 01:52:51;;;;;;;19.30;5.78;;;;;;;12.75;65.29;100684.81;5011043;28;20145;-64
2021/03/11 01:55:20;;;;;;;15.70;5.25;;;;;;;12.67;65.43;100682.09;5012412;28;20048;-65
2021/03/11 01:57:48;;;;;;;14.35;5.10;;;;;;;12.65;65.39;100688.28;5011684;28;20109;-65
2021/03/11 02:00:18;;;;;;;14.82;5.53;;;;;;;12.67;65.27;100684.75;5012369;28;20030;-64
2021/03/11 02:02:46;;;;;;;12.15;4.97;;;;;;;12.68;65.22;100681.25;5011097;28;20133;-65
2021/03/11 02:05:15;;;;;;;15.23;4.53;;;;;;;12.68;65.12;100664.47;4993045;28;20026;-65
2021/03/11 02:07:42;;;;;;;14.63;5.40;;;;;;;12.65;65.21;100668.00;5001525;28;20044;-66
2021/03/11 02:10:12;;;;;;;16.80;4.85;;;;;;;12.63;65.26;100677.69;5012351;28;20034;-64
2021/03/11 02:12:44;;;;;;;18.48;4.82;;;;;;;12.53;65.48;100674.97;5011611;28;20128;-65
2021/03/11 02:15:20;;;;;;;11.77;5.10;;;;;;;12.54;65.67;100672.31;5010939;28;20084;-65
2021/03/11 02:17:52;;;;;;;15.93;5.50;;;;;;;12.51;65.63;100676.72;5011966;28;20534;-65
2021/03/11 02:20:38;;;;;;;16.88;5.30;;;;;;;12.56;65.58;100680.28;5012332;28;20045;-65
2021/03/11 02:23:43;;;;;;;16.23;5.43;;;;;;;12.52;65.59;100673.22;5010674;28;20034;-65
2021/03/11 02:26:31;;;;;;;15.00;5.45;;;;;;;12.51;65.60;100660.84;5011628;28;20037;-65
2021/03/11 02:29:04;;;;;;;14.07;5.00;;;;;;;12.46;65.56;100657.28;5011013;28;20038;-66
2021/03/11 02:31:35;;;;;;;22.65;6.22;;;;;;;12.39;65.82;100659.00;5011446;28;20033;-65
2021/03/11 02:34:04;;;;;;;25.27;10.85;;;;;;;12.44;65.71;100657.28;5011439;28;20472;-65
2021/03/11 02:36:32;;;;;;;17.17;6.22;;;;;;;12.41;65.78;100669.59;5011700;28;20061;-65
2021/03/11 02:39:02;;;;;;;17.02;7.35;;;;;;;12.43;65.71;100663.44;5010835;28;20044;-65
2021/03/11 02:41:29;;;;;;;20.67;6.93;;;;;;;12.44;65.63;100653.72;5011333;28;20046;-65
2021/03/11 02:43:56;;;;;;;19.60;6.25;;;;;;;12.46;65.52;100652.00;5010753;28;20034;-65
2021/03/11 02:46:24;;;;;;;18.02;7.00;;;;;;;12.48;65.57;100653.75;5011574;28;20038;-64
2021/03/11 02:48:53;;;;;;;22.42;6.72;;;;;;;12.37;65.71;100652.81;5011054;28;20038;-65
2021/03/11 02:51:21;;;;;;;16.67;6.00;;;;;;;12.42;65.77;100655.47;5011818;28;20038;-65
2021/03/11 02:53:50;;;;;;;14.77;6.97;;;;;;;12.40;65.72;100649.31;5009051;28;20439;-65
2021/03/11 02:56:18;;;;;;;15.75;5.32;;;;;;;12.34;65.99;100660.72;5009672;28;20038;-65
2021/03/11 02:58:46;;;;;;;13.40;4.95;;;;;;;12.28;66.08;100655.38;5010139;28;20080;-65
2021/03/11 03:01:18;;;;;;;16.65;5.78;;;;;;;12.28;66.23;100650.97;4996070;28;20735;-65
2021/03/11 03:03:47;;;;;;;14.75;5.57;;;;;;;12.29;66.15;100666.00;5010127;28;20048;-65
2021/03/11 03:06:15;;;;;;;20.10;5.68;;;;;;;12.27;66.10;100651.00;5010960;28;20169;-65
2021/03/11 03:08:43;;;;;;;11.45;5.68;;;;;;;12.28;66.23;100653.63;5010302;28;20128;-65
2021/03/11 03:11:11;;;;;;;16.20;5.47;;;;;;;12.24;66.42;100651.84;5011037;28;20034;-65
2021/03/11 03:13:41;;;;;;;15.57;5.93;;;;;;;12.23;66.47;100646.53;5010351;28;20729;-66
2021/03/11 03:16:09;;;;;;;20.98;6.35;;;;;;;12.23;66.68;100655.34;5010202;28;20042;-65
2021/03/11 03:18:37;;;;;;;16.13;5.28;;;;;;;12.23;66.55;100650.06;5010446;28;20037;-65
2021/03/11 03:21:07;;;;;;;16.58;5.68;;;;;;;12.23;66.50;100657.13;5010908;28;20038;-65
2021/03/11 03:23:34;;;;;;;12.35;5.30;;;;;;;12.22;66.46;100660.63;5010372;28;20455;-65
2021/03/11 03:26:02;;;;;;;17.63;7.00;;;;;;;12.22;66.55;100660.63;5010207;28;20381;-65
2021/03/11 03:28:29;;;;;;;16.95;7.05;;;;;;;12.26;66.46;100659.81;5010396;28;20046;-65
2021/03/11 03:30:56;;;;;;;18.88;6.57;;;;;;;12.17;66.55;100655.31;5010152;28;20038;-65
2021/03/11 03:33:24;;;;;;;13.50;5.68;;;;;;;12.16;66.61;100664.13;5010243;28;20052;-65
2021/03/11 03:35:51;;;;;;;19.02;6.60;;;;;;;12.12;66.81;100658.81;5009994;28;20531;-65
2021/03/11 03:38:19;;;;;;;15.20;6.25;;;;;;;12.10;66.80;100652.59;5010402;28;20049;-65
2021/03/11 03:40:47;;;;;;;18.33;6.68;;;;;;;12.04;66.95;100661.41;5009543;28;20037;-65
2021/03/11 03:43:18;;;;;;;14.55;6.57;;;;;;;12.06;67.03;100654.38;5010537;28;20037;-65
2021/03/11 03:45:50;;;;;;;15.48;7.03;;;;;;;12.14;66.92;100671.16;5010271;28;20125;-64
2021/03/11 03:48:22;;;;;;;12.18;5.80;;;;;;;12.08;67.15;100676.41;5010135;28;20402;-65
2021/03/11 03:50:50;;;;;;;18.42;6.55;;;;;;;12.06;67.33;100674.66;5000292;28;20061;-65
2021/03/11 03:53:22;;;;;;;12.20;6.55;;;;;;;12.13;67.02;100674.72;5010200;28;20041;-65
2021/03/11 03:55:55;;;;;;;12.88;5.18;;;;;;;12.12;67.21;100680.88;5009725;28;20050;-65
2021/03/11 03:58:24;;;;;;;18.27;6.30;;;;;;;12.09;67.16;100669.34;5010205;28;20132;-64
2021/03/11 04:00:51;;;;;;;22.10;7.55;;;;;;;12.13;67.28;100660.59;5009731;28;20034;-65
2021/03/11 04:03:20;;;;;;;17.23;7.50;;;;;;;12.11;67.46;100662.31;5010080;28;20121;-65
2021/03/11 04:05:48;;;;;;;26.55;12.00;;;;;;;11.98;67.58;100671.94;5009311;28;20048;-65
2021/03/11 04:08:17;;;;;;;25.02;13.65;;;;;;;11.90;67.98;100666.56;4993270;28;20038;-65
2021/03/11 04:10:47;;;;;;;28.65;11.85;;;;;;;11.91;67.90;100657.75;5009565;28;20046;-65
2021/03/11 04:13:14;;;;;;;22.00;7.47;;;;;;;11.92;67.85;100666.59;5009883;28;20034;-64
2021/03/11 04:15:41;;;;;;;22.95;8.23;;;;;;;11.84;67.97;100677.09;5009035;28;20048;-65
2021/03/11 04:18:10;;;;;;;21.35;9.00;;;;;;;11.83;68.06;100677.97;5009968;28;20129;-65
2021/03/11 04:20:37;;;;;;;20.63;6.65;;;;;;;11.87;68.09;100668.31;5008545;28;21539;-65
2021/03/11 04:23:04;;;;;;;15.70;6.13;;;;;;;11.90;67.96;100663.03;5009772;28;20037;-65
2021/03/11 04:25:32;;;;;;;15.68;6.95;;;;;;;11.78;68.37;100663.81;5010030;28;20117;-65
2021/03/11 04:28:00;;;;;;;24.38;6.60;;;;;;;11.86;68.45;100675.38;5009114;28;20069;-65
2021/03/11 04:30:28;;;;;;;18.42;6.75;;;;;;;11.78;68.63;100671.75;5009281;28;20125;-65
2021/03/11 04:32:55;;;;;;;19.48;8.52;;;;;;;11.70;68.91;100672.50;5009558;28;20046;-65
2021/03/11 04:35:22;;;;;;;20.58;7.65;;;;;;;11.73;68.83;100676.09;5009548;28;20052;-65
2021/03/11 04:37:50;;;;;;;22.65;7.55;;;;;;;11.79;68.74;100684.13;5009473;28;20499;-65
2021/03/11 04:40:18;;;;;;;22.80;8.27;;;;;;;11.86;68.65;100679.75;5013640;28;20137;-65
2021/03/11 04:42:46;;;;;;;19.15;7.68;;;;;;;11.96;68.51;100668.38;5012939;28;20133;-65
2021/03/11 04:45:14;;;;;;;16.17;6.18;;;;;;;12.03;68.57;100666.66;5013513;28;20133;-65
2021/03/11 04:47:42;;;;;;;15.48;5.88;;;;;;;12.03;68.63;100671.97;5012719;28;20125;-65
2021/03/11 04:50:11;;;;;;;16.73;7.28;;;;;;;12.07;68.62;100648.19;5013627;28;20045;-65
2021/03/11 04:52:40;;;;;;;16.48;6.03;;;;;;;12.05;68.86;100655.22;5012045;28;20034;-65
2021/03/11 04:55:08;;;;;;;20.10;7.63;;;;;;;12.10;68.78;100664.09;5013280;28;20376;-65
2021/03/11 04:57:35;;;;;;;25.10;13.07;;;;;;;12.13;68.83;100663.22;5012656;28;20052;-65
2021/03/11 05:00:04;;;;;;;24.02;12.30;;;;;;;12.16;68.95;100660.59;5012892;28;20042;-64
2021/03/11 05:02:35;;;;;;;20.80;9.30;;;;;;;12.31;69.03;100666.00;5013209;28;20046;-65
2021/03/11 05:05:07;;;;;;;27.75;13.68;;;;;;;12.45;68.68;100674.03;5013236;28;20096;-64
2021/03/11 05:07:34;;;;;;;16.55;7.88;;;;;;;12.57;68.85;100677.66;4995802;28;20124;-66
2021/03/11 05:10:01;;;;;;;17.77;8.05;;;;;;;12.70;68.87;100671.53;5013198;28;20035;-65
2021/03/11 05:12:29;;;;;;;18.70;7.07;;;;;;;12.78;68.83;100664.53;5012982;28;20124;-64
2021/03/11 05:14:56;;;;;;;17.92;9.23;;;;;;;12.88;68.80;100669.84;5012241;28;20044;-65
2021/03/11 05:17:23;;;;;;;24.42;8.65;;;;;;;13.01;68.63;100675.22;5013232;28;20121;-65
2021/03/11 05:19:51;;;;;;;18.52;7.65;;;;;;;13.15;68.73;100676.19;5012263;28;20044;-65
2021/03/11 05:22:18;;;;;;;16.10;8.98;;;;;;;13.32;68.65;100672.72;5012644;28;20048;-66
2021/03/11 05:24:45;;;;;;;24.33;11.10;;;;;;;13.37;68.77;100674.50;5012632;28;20137;-66
2021/03/11 05:27:12;;;;;;;15.55;8.10;;;;;;;13.43;68.83;100678.94;5012718;28;20491;-65
2021/03/11 05:29:39;;;;;;;30.17;12.35;;;;;;;13.28;68.94;100693.03;5012383;28;20490;-65
2021/03/11 05:32:07;;;;;;;33.28;14.20;;;;;;;13.35;69.14;100694.81;4995594;28;20491;-65
2021/03/11 05:34:34;;;;;;;30.05;12.32;;;;;;;13.52;68.94;100700.19;5012875;28;20595;-66
2021/03/11 05:37:03;;;;;;;23.80;11.13;;;;;;;13.70;68.96;100699.34;5012017;28;20563;-66
2021/03/11 05:39:29;;;;;;;24.95;9.63;;;;;;;13.87;69.15;100702.88;5012765;28;20095;-65
2021/03/11 05:41:58;;;;;;;21.05;9.90;;;;;;;14.14;69.21;100696.72;5012249;28;20125;-65
2021/03/11 05:44:25;;;;;;;29.42;11.38;;;;;;;14.36;69.01;100698.47;4994502;28;20038;-66
2021/03/11 05:46:53;;;;;;;25.52;13.90;;;;;;;14.67;68.92;100694.91;5012261;28;20042;-65
2021/03/11 05:49:23;;;;;;;32.15;15.30;;;;;;;14.98;68.68;100705.44;5012378;28;20531;-66
2021/03/11 05:51:51;;;;;;;31.52;15.18;;;;;;;15.15;67.42;100700.97;5011623;28;20065;-66
2021/03/11 05:54:19;;;;;;;28.55;14.23;;;;;;;15.29;66.80;100696.47;5012029;28;20052;-66
2021/03/11 05:56:47;;;;;;;30.13;18.90;;;;;;;15.38;66.40;100696.41;5011196;28;20124;-66
2021/03/11 05:59:14;;;;;;;56.38;34.75;;;;;;;15.44;66.07;100701.72;4997988;28;20460;-66
2021/03/11 06:01:42;;;;;;;58.45;39.45;;;;;;;15.47;65.91;100709.69;5011089;28;20125;-67
2021/03/11 06:04:09;;;;;;;40.55;28.65;;;;;;;15.62;66.02;100700.75;5012484;28;20045;-66
2021/03/11 06:06:36;;;;;;;44.90;33.45;;;;;;;15.85;65.87;100692.63;5011870;28;20125;-66
2021/03/11 06:09:03;;;;;;;45.90;34.15;;;;;;;16.13;65.94;100694.19;5011695;28;20092;-66
2021/03/11 06:11:34;;;;;;;37.70;25.52;;;;;;;16.37;66.23;100709.06;5011835;28;20454;-65
2021/03/11 06:14:03;;;;;;;27.17;13.10;;;;;;;16.66;65.56;100707.06;5015648;28;20046;-66
2021/03/11 06:16:33;;;;;;;20.90;10.32;;;;;;;16.96;65.23;100712.94;5004904;28;20141;-66
2021/03/11 06:19:01;;;;;;;21.15;10.02;;;;;;;17.17;64.04;100711.81;5011440;28;20046;-66
2021/03/11 06:21:28;;;;;;;35.55;24.70;;;;;;;17.40;63.06;100715.06;5026507;28;20562;-66
2021/03/11 06:23:55;;;;;;;52.03;35.47;;;;;;;17.69;62.20;100709.38;5011034;28;20060;-67
2021/03/11 06:26:22;;;;;;;34.05;21.92;;;;;;;17.96;61.84;100711.63;5012607;28;20052;-66
2021/03/11 06:28:55;;;;;;;25.65;10.98;;;;;;;18.04;60.66;100707.06;5011263;28;20077;-66
2021/03/11 06:31:26;;;;;;;18.42;6.53;;;;;;;17.96;60.13;100716.97;5012043;28;20034;-66
2021/03/11 06:33:54;;;;;;;20.48;8.35;;;;;;;17.84;60.34;100720.72;5010572;28;20419;-66
2021/03/11 06:36:22;;;;;;;16.48;6.97;;;;;;;17.71;60.62;100728.94;5012426;28;20042;-66
2021/03/11 06:38:49;;;;;;;21.05;7.38;;;;;;;17.58;60.92;100730.84;5012718;28;20038;-66
2021/03/11 06:41:17;;;;;;;17.58;7.22;;;;;;;17.46;60.87;100731.00;4993435;28;20048;-66
2021/03/11 06:43:59;;;;;;;23.95;9.77;;;;;;;17.51;61.09;100735.41;5011904;28;20386;-67
2021/03/11 06:46:27;;;;;;;30.85;13.35;;;;;;;17.74;61.22;100736.88;5018552;28;20038;-66
2021/03/11 06:49:08;;;;;;;37.00;19.17;;;;;;;18.01;61.18;100727.56;5011081;28;20467;-67
2021/03/11 06:51:35;;;;;;;29.70;13.60;;;;;;;18.07;61.28;100720.34;5010801;28;20088;-67
2021/03/11 06:54:03;;;;;;;22.92;10.07;;;;;;;18.11;61.14;100729.22;5011127;28;20041;-66
2021/03/11 06:56:30;;;;;;;20.48;9.35;;;;;;;18.15;61.18;100729.13;5023880;28;20045;-67
2021/03/11 06:59:00;;;;;;;26.52;9.55;;;;;;;18.30;61.29;100731.56;5016617;28;20534;-66
2021/03/11 07:01:28;;;;;;;29.10;12.50;;;;;;;18.42;61.20;100729.59;5010528;28;20113;-66
2021/03/11 07:03:58;;;;;;;35.10;20.65;;;;;;;18.46;60.89;100736.63;5010395;28;20038;-67
2021/03/11 07:06:30;;;;;;;31.45;11.90;;;;;;;18.51;60.96;100735.66;5010719;28;20085;-66
2021/03/11 07:08:59;;;;;;;18.73;8.32;;;;;;;18.69;60.91;100746.06;5011157;28;20037;-67
2021/03/11 07:11:26;;;;;;;25.63;9.10;;;;;;;18.88;60.84;100741.25;5011100;28;20042;-66
2021/03/11 07:13:54;;;;;;;25.73;10.45;;;;;;;19.23;60.65;100745.06;5010200;28;20042;-67
2021/03/11 07:16:24;;;;;;;19.15;8.63;;;;;;;19.54;60.43;100748.00;5010531;28;20081;-67
2021/03/11 07:19:11;;;;;;;22.42;9.90;;;;;;;19.87;59.69;100748.16;5016085;28;20041;-67
2021/03/11 07:21:41;;;;;;;20.23;8.20;;;;;;;20.12;58.50;100740.41;4991442;28;20038;-66
2021/03/11 07:24:09;;;;;;;19.63;8.80;;;;;;;20.19;57.54;100735.78;5013352;28;20566;-66
2021/03/11 07:26:38;;;;;;;19.02;7.85;;;;;;;20.36;56.62;100744.31;5018590;28;20112;-67
2021/03/11 07:29:16;;;;;;;16.50;6.90;;;;;;;20.58;55.34;100750.91;5023028;28;20491;-67
2021/03/11 07:31:45;;;;;;;17.20;6.75;;;;;;;20.79;54.79;100744.13;5008749;28;20053;-67
2021/03/11 07:34:12;;;;;;;18.33;7.43;;;;;;;20.86;53.48;100755.56;5008770;28;20579;-67
2021/03/11 07:36:40;;;;;;;13.40;6.32;;;;;;;20.83;53.16;100752.94;4992545;28;20053;-67
2021/03/11 07:39:10;;;;;;;18.58;6.50;;;;;;;21.06;53.89;100750.53;5007013;28;20040;-67
2021/03/11 07:41:37;;;;;;;17.30;6.10;;;;;;;21.34;53.40;100746.16;5007166;28;20041;-67
2021/03/11 07:44:05;;;;;;;22.85;6.57;;;;;;;21.71;52.55;100745.97;5008713;28;20124;-66
2021/03/11 07:46:35;;;;;;;21.13;7.10;;;;;;;22.05;52.36;100750.34;5010802;28;20037;-67
2021/03/11 07:49:03;;;;;;;20.05;6.43;;;;;;;22.43;51.79;100749.97;5009014;28;20093;-67
2021/03/11 07:51:33;;;;;;;20.88;6.93;;;;;;;22.54;50.70;100750.47;5009678;28;20177;-67
2021/03/11 07:54:00;;;;;;;18.52;5.57;;;;;;;22.15;49.81;100751.78;5009439;28;20072;-67
2021/03/11 07:56:28;;;;;;;17.33;5.28;;;;;;;21.71;49.51;100745.97;5009356;28;20042;-67
2021/03/11 07:58:55;;;;;;;19.10;5.72;;;;;;;21.23;49.91;100753.66;5008842;28;20052;-67
2021/03/11 08:01:22;;;;;;;83.57;45.15;;;;;;;20.92;50.38;100739.28;5010135;28;20082;-67
2021/03/11 08:03:51;;;;;;;107.22;61.40;;;;;;;20.78;51.05;100747.72;5009598;28;20096;-67
2021/03/11 08:06:24;;;;;;;33.50;13.40;;;;;;;20.61;51.41;100739.25;5008689;28;20042;-67
2021/03/11 08:08:52;;;;;;;24.15;9.30;;;;;;;20.45;51.50;100736.06;5009118;28;20049;-67
2021/03/11 08:11:33;;;;;;;24.67;11.23;;;;;;;20.26;51.28;100732.91;5010238;28;20040;-66
2021/03/11 08:14:22;;;;;;;26.55;11.73;;;;;;;20.17;51.41;100729.56;5009194;28;20052;-67
2021/03/11 08:16:50;;;;;;;18.30;7.03;;;;;;;19.98;51.83;100733.59;5008939;28;20507;-67
2021/03/11 08:19:49;;;;;;;25.55;6.68;;;;;;;19.95;50.49;100742.63;5009773;28;20511;-67
2021/03/11 08:22:59;;;;;;;22.23;8.00;;;;;;;19.68;51.07;100744.13;5008952;28;20417;-67
2021/03/11 08:25:46;;;;;;;40.13;16.85;;;;;;;19.61;51.00;100752.31;5006875;28;20042;-67
2021/03/11 08:28:38;;;;;;;26.58;13.27;;;;;;;19.80;50.93;100762.59;5009835;28;20037;-66
2021/03/11 08:31:07;;;;;;;19.63;8.90;;;;;;;20.09;49.96;100769.94;4994097;28;20042;-67
2021/03/11 08:33:50;;;;;;;22.17;9.65;;;;;;;20.39;48.74;100768.41;5008163;28;20046;-67
2021/03/11 08:36:36;;;;;;;31.45;9.75;;;;;;;20.62;48.35;100768.69;5008571;28;20038;-67
2021/03/11 08:39:30;;;;;;;29.27;12.93;;;;;;;20.74;48.40;100769.31;5008929;28;20119;-66
2021/03/11 08:41:57;;;;;;;40.83;22.00;;;;;;;20.97;48.15;100767.78;5021493;28;20502;-67
2021/03/11 08:44:43;;;;;;;30.20;12.75;;;;;;;21.41;47.83;100758.50;4995190;28;20499;-67
2021/03/11 08:47:12;;;;;;;41.20;19.35;;;;;;;21.99;47.08;100751.38;5009985;28;20037;-66
2021/03/11 08:49:42;;;;;;;23.15;9.77;;;;;;;22.27;45.78;100738.81;5009713;28;20030;-67
2021/03/11 08:52:40;;;;;;;152.35;95.00;;;;;;;22.39;45.41;100750.09;5009226;28;20121;-67
2021/03/11 08:55:33;;;;;;;17.90;8.52;;;;;;;22.23;45.35;100752.44;5011488;28;20553;-67
2021/03/11 08:58:02;;;;;;;16.80;6.72;;;;;;;22.14;45.51;100760.78;5008728;28;20052;-68
2021/03/11 09:00:58;;;;;;;18.02;5.13;;;;;;;22.11;45.00;100760.91;5004423;28;20090;-68
2021/03/11 09:03:46;;;;;;;16.45;5.63;;;;;;;22.13;44.87;100759.00;4998737;28;20538;-68
2021/03/11 09:06:17;;;;;;;24.17;9.60;;;;;;;22.12;45.32;100747.38;5014644;28;20129;-69
2021/03/11 09:08:50;;;;;;;24.48;7.07;;;;;;;22.05;45.57;100739.59;5012002;28;20056;-67
2021/03/11 09:11:21;;;;;;;19.00;6.70;;;;;;;21.84;46.24;100735.72;5009297;28;20067;-68
2021/03/11 09:13:51;;;;;;;21.33;6.90;;;;;;;21.68;46.68;100743.38;4990782;28;20560;-69
2021/03/11 09:16:24;;;;;;;19.63;6.97;;;;;;;21.59;46.58;100732.91;5013576;28;20045;-68
2021/03/11 09:18:55;;;;;;;27.25;9.45;;;;;;;21.58;46.57;100725.78;5010939;28;20046;-68
2021/03/11 09:21:33;;;;;;;41.37;19.83;;;;;;;21.52;47.03;100722.38;5022417;28;20052;-68
2021/03/11 09:24:01;;;;;;;22.17;8.82;;;;;;;21.33;46.85;100722.06;5014587;28;20287;-68
2021/03/11 09:26:33;;;;;;;24.80;12.27;;;;;;;21.05;46.89;100722.81;5012103;28;20061;-68
2021/03/11 09:29:00;;;;;;;23.00;7.93;;;;;;;20.87;47.09;100733.19;5012517;28;20046;-68
2021/03/11 09:31:29;;;;;;;16.75;6.32;;;;;;;20.85;46.93;100733.22;4993417;28;20565;-68
2021/03/11 09:33:59;;;;;;;16.88;5.32;;;;;;;20.98;46.78;100723.03;5009131;28;20054;-67
2021/03/11 09:36:26;;;;;;;14.95;6.50;;;;;;;21.11;46.72;100726.25;5020904;28;20038;-68
2021/03/11 09:39:00;;;;;;;18.50;8.57;;;;;;;21.15;46.72;100728.78;5013616;28;20120;-68
2021/03/11 09:41:28;;;;;;;13.63;5.13;;;;;;;21.10;46.87;100741.47;5011829;28;20931;-66
2021/03/11 09:43:56;;;;;;;18.50;7.65;;;;;;;21.05;47.22;100730.88;5011621;28;20502;-67
2021/03/11 09:46:24;;;;;;;24.42;6.80;;;;;;;20.96;46.91;100733.78;5012587;28;20034;-67
2021/03/11 09:48:53;;;;;;;15.73;5.00;;;;;;;20.88;47.05;100735.78;5011820;28;20034;-66
2021/03/11 09:51:22;;;;;;;20.20;6.03;;;;;;;20.77;47.20;100728.97;5012253;28;20038;-68
2021/03/11 09:53:50;;;;;;;14.02;4.75;;;;;;;20.64;47.57;100750.75;5010204;28;20152;-67
2021/03/11 09:56:19;;;;;;;15.23;5.82;;;;;;;20.37;48.31;100753.25;5003046;28;20642;-69
2021/03/11 09:58:48;;;;;;;17.77;5.45;;;;;;;20.26;48.81;100762.41;5012900;28;20040;-70
2021/03/11 10:01:27;;;;;;;15.35;5.47;;;;;;;20.30;49.04;100739.06;5013832;28;20046;-69
2021/03/11 10:03:55;;;;;;;27.05;7.50;;;;;;;20.44;49.03;100731.59;5010712;28;20056;-69
2021/03/11 10:06:22;;;;;;;20.20;7.72;;;;;;;20.77;48.71;100726.28;5021912;28;20053;-69
2021/03/11 10:08:55;;;;;;;26.17;10.68;;;;;;;21.16;47.08;100714.47;5011702;28;20046;-68
2021/03/11 10:11:24;;;;;;;20.83;8.77;;;;;;;21.59;47.04;100713.22;5011898;28;20529;-68
2021/03/11 10:13:53;;;;;;;11.77;3.90;;;;;;;21.99;46.87;100720.97;5010659;28;20033;-68
2021/03/11 10:16:40;;;;;;;10.93;3.45;;;;;;;22.50;45.82;100721.91;5007880;28;20042;-69
2021/03/11 10:19:11;;;;;;;11.68;3.97;;;;;;;23.02;45.12;100721.00;5011923;28;20042;-70
2021/03/11 10:21:50;;;;;;;9.63;3.05;;;;;;;23.47;43.82;100722.94;5011379;28;20123;-70
2021/03/11 10:24:34;;;;;;;9.85;3.05;;;;;;;23.85;41.67;100721.44;5011899;28;20045;-70
2021/03/11 10:27:03;;;;;;;9.80;2.20;;;;;;;24.02;41.31;100723.50;5010681;28;20049;-70
2021/03/11 10:29:32;;;;;;;12.13;3.35;;;;;;;23.62;40.84;100733.16;5011937;28;20132;-70
2021/03/11 10:32:02;;;;;;;10.70;2.85;;;;;;;23.02;41.15;100733.59;5005359;28;20034;-70
2021/03/11 10:34:29;;;;;;;12.95;4.13;;;;;;;22.82;42.10;100726.22;4991916;28;20038;-69
2021/03/11 10:36:57;;;;;;;9.23;3.30;;;;;;;23.07;42.54;100730.72;4991166;28;20039;-69
2021/03/11 10:39:25;;;;;;;10.15;3.63;;;;;;;23.09;42.55;100731.56;5011092;28;20141;-70
2021/03/11 10:42:00;;;;;;;7.97;2.80;;;;;;;22.49;42.08;100730.03;5011046;28;20046;-69
2021/03/11 10:44:29;;;;;;;8.77;3.10;;;;;;;21.83;43.12;100734.84;5010954;28;20553;-69
2021/03/11 10:47:16;;;;;;;11.48;3.72;;;;;;;21.21;44.65;100743.88;4992053;28;20076;-69
2021/03/11 10:49:44;;;;;;;10.82;4.15;;;;;;;21.10;44.77;100749.53;5010947;28;20448;-69
2021/03/11 10:52:12;;;;;;;9.85;4.30;;;;;;;20.86;44.68;100739.47;5010909;28;20046;-69
2021/03/11 10:54:42;;;;;;;10.93;4.22;;;;;;;20.92;45.07;100748.22;5008816;28;20748;-69
2021/03/11 10:57:11;;;;;;;7.07;3.10;;;;;;;21.11;43.77;100747.72;5010830;28;20046;-69
2021/03/11 11:00:04;;;;;;;9.25;3.08;;;;;;;21.35;43.59;100750.63;5010808;28;20062;-70
2021/03/11 11:02:32;;;;;;;8.25;3.08;;;;;;;21.44;42.95;100755.72;4995868;28;20046;-69
2021/03/11 11:04:59;;;;;;;7.70;2.75;;;;;;;21.56;42.99;100764.34;5008989;28;20107;-70
2021/03/11 11:07:26;;;;;;;8.65;3.00;;;;;;;21.68;43.55;100772.94;5010864;28;20459;-70
2021/03/11 11:09:55;;;;;;;9.55;2.55;;;;;;;21.66;43.86;100769.38;4991262;28;20054;-69
2021/03/11 11:12:22;;;;;;;14.05;3.35;;;;;;;21.64;44.26;100782.00;5007324;28;20038;-70
2021/03/11 11:14:50;;;;;;;8.23;3.10;;;;;;;21.80;44.27;100767.16;5009688;28;20053;-69
2021/03/11 11:17:20;;;;;;;8.68;2.47;;;;;;;21.75;43.03;100773.63;5010453;28;20058;-70
2021/03/11 11:19:48;;;;;;;12.50;3.08;;;;;;;21.84;42.65;100765.28;5009793;28;20121;-71
2021/03/11 11:22:16;;;;;;;10.40;2.92;;;;;;;21.86;42.07;100763.41;5010799;28;20407;-69
2021/03/11 11:24:43;;;;;;;7.97;2.42;;;;;;;22.02;42.16;100780.88;5010204;28;20085;-70
2021/03/11 11:27:13;;;;;;;10.10;3.13;;;;;;;21.92;41.62;100794.63;5010773;28;20040;-69
2021/03/11 11:29:40;;;;;;;7.38;2.75;;;;;;;21.91;40.42;100780.31;5010393;28;20041;-70
2021/03/11 11:32:08;;;;;;;9.43;2.17;;;;;;;21.90;39.12;100793.78;4993090;28;20034;-70